Time;durP1;ratioP1;P1;durP2;ratioP2;P2;SDS_P1;SDS_P2;PMS_P1;PMS_P2;Temp;Humidity;BMP_temperature;BMP_pressure;BME280_temperature;BME280_humidity;BME280_pressure;Samples;Min_cycle;Max_cycle;Signal;HPM_P1;HPM_P2
2023/09/28 00:00:45;;;;;;;8.33;3.23;;;;;;;20.16;53.59;97195.97;5046923;28;20259;-83
2023/09/28 00:03:12;;;;;;;3.70;2.67;;;;;;;19.72;53.49;97150.56;5047258;28;20201;-77
2023/09/28 00:08:44;;;;;;;7.77;2.40;;;;;;;20.01;53.62;97191.94;5046751;28;20207;-84
2023/09/28 00:14:15;;;;;;;4.30;2.43;;;;;;;20.05;53.79;97187.28;5047056;28;20221;-76
2023/09/28 00:16:42;;;;;;;8.90;3.20;;;;;;;19.96;54.06;97188.03;5047279;28;20202;-75
2023/09/28 00:19:10;;;;;;;6.70;2.57;;;;;;;20.09;53.90;97183.44;5047132;28;20212;-76
2023/09/28 00:21:37;;;;;;;6.93;3.27;;;;;;;20.07;54.31;97190.63;5027429;28;20194;-81
2023/09/28 00:24:05;;;;;;;5.20;3.00;;;;;;;19.93;54.43;97191.72;5043390;28;20213;-80
2023/09/28 00:26:32;;;;;;;5.57;2.80;;;;;;;19.72;55.17;97174.22;5046806;28;20598;-82
2023/09/28 00:28:59;;;;;;;5.23;2.87;;;;;;;19.79;55.48;97186.75;5046819;28;20197;-79
2023/09/28 00:31:45;;;;;;;6.57;2.30;;;;;;;19.91;54.91;97184.91;5046836;28;20207;-83
2023/09/28 00:34:12;;;;;;;4.47;2.97;;;;;;;19.87;55.08;97180.84;5046318;28;20241;-83
2023/09/28 00:36:39;;;;;;;5.80;2.90;;;;;;;19.95;54.30;97170.56;5046999;28;20209;-84
2023/09/28 00:39:08;;;;;;;5.30;2.80;;;;;;;20.08;54.23;97176.50;5044736;28;20699;-82
2023/09/28 00:41:53;;;;;;;10.33;3.17;;;;;;;20.05;53.99;97179.41;5045751;28;20227;-84
2023/09/28 00:44:21;;;;;;;10.13;3.00;;;;;;;19.96;54.68;97177.50;5052053;28;20221;-80
2023/09/28 00:46:48;;;;;;;6.50;3.07;;;;;;;19.92;54.69;97176.09;5056398;28;20237;-80
2023/09/28 00:49:16;;;;;;;5.17;2.83;;;;;;;20.16;54.43;97182.81;5046692;28;20259;-83
2023/09/28 00:54:34;;;;;;;7.70;3.00;;;;;;;19.92;55.27;97181.34;5029267;28;20225;-82
2023/09/28 00:57:01;;;;;;;6.77;2.50;;;;;;;19.87;55.34;97184.34;5026499;28;20205;-84
2023/09/28 01:02:33;;;;;;;4.70;2.50;;;;;;;20.08;54.13;97179.13;5027211;28;20280;-85
2023/09/28 01:08:19;;;;;;;4.07;2.77;;;;;;;19.58;56.47;97166.63;5030265;28;20681;-83
2023/09/28 01:10:47;;;;;;;5.20;2.90;;;;;;;19.85;55.35;97169.63;5045267;28;20687;-86
2023/09/28 01:13:33;;;;;;;4.87;3.00;;;;;;;19.65;56.46;97162.53;5049773;28;20224;-80
2023/09/28 01:16:00;;;;;;;4.70;2.83;;;;;;;19.58;56.82;97156.91;5050825;28;20748;-82
2023/09/28 01:21:13;;;;;;;5.03;2.50;;;;;;;19.67;56.89;97161.44;5050237;28;20209;-84
2023/09/28 01:23:40;;;;;;;5.27;2.80;;;;;;;19.66;56.48;97158.97;5049926;28;20284;-82
2023/09/28 01:26:30;;;;;;;8.47;2.83;;;;;;;19.67;56.37;97156.19;5050009;28;20248;-83
2023/09/28 01:28:58;;;;;;;6.97;3.00;;;;;;;19.86;55.92;97153.75;5049282;28;20463;-82
2023/09/28 01:31:27;;;;;;;6.87;2.97;;;;;;;19.85;56.11;97159.97;5049772;28;20251;-83
2023/09/28 01:33:54;;;;;;;7.50;2.93;;;;;;;19.19;58.54;97160.88;5049949;28;20228;-76
2023/09/28 01:36:22;;;;;;;6.93;2.80;;;;;;;19.02;59.26;97166.59;5050340;28;20212;-85
2023/09/28 01:39:00;;;;;;;8.57;3.13;;;;;;;19.43;57.91;97161.59;5050124;28;20258;-82
2023/09/28 01:41:46;;;;;;;7.53;3.37;;;;;;;19.28;58.08;97169.81;5050437;28;20231;-87
2023/09/28 01:44:13;;;;;;;9.43;3.07;;;;;;;19.07;58.64;97163.63;5049797;28;20563;-84
2023/09/28 01:46:40;;;;;;;7.90;3.43;;;;;;;19.23;57.90;97164.09;5050039;28;20254;-82
2023/09/28 01:49:07;;;;;;;9.73;3.53;;;;;;;19.40;57.66;97164.47;5048213;28;20204;-78
2023/09/28 01:51:34;;;;;;;10.10;3.43;;;;;;;19.27;58.47;97168.97;5049730;28;20196;-81
2023/09/28 01:54:01;;;;;;;5.07;2.70;;;;;;;18.84;59.49;97170.63;5048191;28;20792;-84
2023/09/28 01:59:14;;;;;;;9.70;3.00;;;;;;;19.09;58.57;97170.44;5048618;28;21068;-84
2023/09/28 02:01:41;;;;;;;8.20;2.90;;;;;;;19.09;58.25;97165.19;5048110;28;20201;-74
2023/09/28 02:04:27;;;;;;;11.03;3.13;;;;;;;19.13;57.98;97171.84;5049353;28;20684;-74
2023/09/28 02:06:54;;;;;;;7.23;3.47;;;;;;;19.09;58.01;97165.19;5049730;28;20206;-74
2023/09/28 02:09:23;;;;;;;6.03;3.23;;;;;;;19.02;58.37;97174.47;5047545;28;20699;-77
2023/09/28 02:11:51;;;;;;;10.20;3.70;;;;;;;18.81;58.03;97120.19;5049848;28;20190;-81
2023/09/28 02:14:38;;;;;;;9.07;3.53;;;;;;;18.79;58.28;97150.97;5047594;28;20659;-79
2023/09/28 02:17:05;;;;;;;6.03;3.40;;;;;;;18.85;58.83;97153.94;5049302;28;20277;-80
2023/09/28 02:19:51;;;;;;;8.90;6.00;;;;;;;18.65;59.03;97165.13;5047532;28;20200;-78
2023/09/28 02:22:18;;;;;;;5.73;3.70;;;;;;;18.35;59.55;97120.19;5047474;28;20756;-84
2023/09/28 02:25:07;;;;;;;8.60;3.50;;;;;;;18.75;59.61;97155.63;5047997;28;20197;-84
2023/09/28 02:27:53;;;;;;;8.67;4.17;;;;;;;18.92;58.89;97173.50;5048964;28;20692;-85
2023/09/28 02:30:23;;;;;;;7.97;3.10;;;;;;;18.97;58.88;97173.16;5048599;28;20204;-83
2023/09/28 02:35:56;;;;;;;8.97;3.13;;;;;;;19.31;57.99;97186.16;5048538;28;20609;-83
2023/09/28 02:38:23;;;;;;;5.70;3.20;;;;;;;19.29;57.73;97182.84;5048857;28;20675;-78
2023/09/28 02:40:50;;;;;;;8.57;3.73;;;;;;;19.05;58.45;97179.50;5049220;28;20284;-85
2023/09/28 02:46:24;;;;;;;6.00;3.63;;;;;;;18.46;59.99;97188.47;5049187;28;20210;-85
2023/09/28 02:51:56;;;;;;;10.97;4.20;;;;;;;18.54;59.62;97178.22;5048609;28;20196;-81
2023/09/28 02:57:28;;;;;;;7.83;3.47;;;;;;;18.50;59.71;97195.16;5048134;28;20197;-83
2023/09/28 02:59:55;;;;;;;8.50;4.13;;;;;;;18.61;59.72;97201.25;5048537;28;20303;-82
2023/09/28 03:02:41;;;;;;;7.27;3.40;;;;;;;18.50;59.90;97197.75;5048667;28;20223;-83
2023/09/28 03:05:08;;;;;;;5.37;3.30;;;;;;;18.26;60.91;97199.56;5048397;28;20204;-83
2023/09/28 03:10:41;;;;;;;9.33;3.40;;;;;;;18.48;60.85;97215.41;5047732;28;20273;-85
2023/09/28 03:13:27;;;;;;;5.73;2.80;;;;;;;18.70;60.06;97215.47;5048685;28;20199;-78
2023/09/28 03:15:54;;;;;;;7.17;3.27;;;;;;;18.26;60.00;97163.66;5044576;28;20200;-83
2023/09/28 03:18:21;;;;;;;10.50;3.93;;;;;;;18.43;60.31;97215.75;5045631;28;20227;-78
2023/09/28 03:20:49;;;;;;;16.23;5.57;;;;;;;18.41;60.74;97214.97;5028792;28;20197;-83
2023/09/28 03:23:15;;;;;;;12.67;4.73;;;;;;;18.51;60.70;97212.53;5027717;28;20773;-80
2023/09/28 03:25:43;;;;;;;12.07;4.50;;;;;;;18.49;60.32;97207.41;5047275;28;20270;-79
2023/09/28 03:28:49;;;;;;;21.07;5.13;;;;;;;18.52;60.89;97227.34;5047093;28;20704;-73
2023/09/28 03:31:32;;;;;;;8.43;3.43;;;;;;;18.33;60.51;97211.25;5046879;28;20192;-75
2023/09/28 03:34:01;;;;;;;6.97;3.40;;;;;;;18.55;59.86;97224.47;5047634;28;20232;-76
2023/09/28 03:36:47;;;;;;;13.33;4.50;;;;;;;18.90;59.28;97222.66;5041326;28;20595;-76
2023/09/28 03:39:14;;;;;;;14.37;3.80;;;;;;;18.84;58.66;97223.13;5027251;28;20206;-75
2023/09/28 03:41:43;;;;;;;11.93;3.73;;;;;;;18.15;60.75;97223.94;5040185;28;20200;-83
2023/09/28 03:47:14;;;;;;;6.53;3.10;;;;;;;18.39;60.14;97234.41;5047398;28;20208;-73
2023/09/28 03:49:41;;;;;;;11.60;3.97;;;;;;;18.48;60.15;97231.13;5044287;28;20772;-82
2023/09/28 03:52:10;;;;;;;9.87;3.50;;;;;;;18.57;59.85;97212.06;5046957;28;20188;-74
2023/09/28 03:54:38;;;;;;;10.80;3.63;;;;;;;18.81;58.96;97207.63;5047235;28;20226;-73
2023/09/28 03:59:50;;;;;;;10.23;4.23;;;;;;;19.09;58.19;97222.94;5048093;28;20813;-76
2023/09/28 04:02:22;;;;;;;9.47;3.73;;;;;;;18.91;58.79;97234.00;5046579;28;20227;-74
2023/09/28 04:08:13;;;;;;;6.37;3.57;;;;;;;18.50;60.55;97224.00;5047016;28;20199;-73
2023/09/28 04:13:26;;;;;;;9.83;3.57;;;;;;;18.49;61.42;97220.53;5045026;28;20254;-74
2023/09/28 04:18:57;;;;;;;20.40;4.30;;;;;;;18.70;60.07;97228.59;5044748;28;20686;-79
2023/09/28 04:21:43;;;;;;;7.80;3.40;;;;;;;18.56;60.62;97220.91;5046040;28;20238;-79
2023/09/28 04:24:10;;;;;;;8.53;4.13;;;;;;;18.76;60.86;97220.25;5046387;28;20213;-79
2023/09/28 04:26:37;;;;;;;11.57;5.00;;;;;;;18.66;60.23;97208.78;5053353;28;20202;-82
2023/09/28 04:29:04;;;;;;;8.30;3.60;;;;;;;18.47;61.49;97217.19;5047134;28;20207;-84
2023/09/28 04:31:32;;;;;;;5.47;3.87;;;;;;;18.12;62.55;97228.53;5047249;28;20314;-88
2023/09/28 04:33:59;;;;;;;8.17;3.77;;;;;;;18.27;62.06;97230.06;5047218;28;20680;-82
2023/09/28 04:36:26;;;;;;;7.97;3.67;;;;;;;18.08;62.48;97229.72;5050730;28;20203;-85
2023/09/28 04:41:58;;;;;;;9.77;3.60;;;;;;;18.43;61.64;97218.38;5048527;28;20285;-82
2023/09/28 04:44:25;;;;;;;14.53;3.37;;;;;;;18.54;61.24;97233.31;5049763;28;20211;-82
2023/09/28 04:47:11;;;;;;;11.33;3.63;;;;;;;18.71;60.89;97222.41;5049777;28;20209;-87
2023/09/28 04:52:25;;;;;;;14.90;4.83;;;;;;;19.36;59.37;97241.84;5049122;28;20199;-83
2023/09/28 04:55:11;;;;;;;13.73;5.50;;;;;;;19.49;58.04;97242.53;5052506;28;20746;-81
2023/09/28 04:57:38;;;;;;;21.03;5.47;;;;;;;19.74;57.04;97251.16;5059039;28;20247;-86
2023/09/28 05:00:42;;;;;;;21.77;6.23;;;;;;;19.87;57.30;97251.84;5050466;28;20581;-87
2023/09/28 05:03:11;;;;;;;14.90;5.00;;;;;;;19.82;56.65;97254.00;5053233;28;20664;-84
2023/09/28 05:05:38;;;;;;;9.87;5.63;;;;;;;20.17;56.24;97254.66;5052457;28;20197;-88
2023/09/28 05:08:05;;;;;;;18.23;5.60;;;;;;;20.10;55.90;97250.84;5063314;28;20200;-78
2023/09/28 05:10:32;;;;;;;24.40;6.70;;;;;;;19.88;57.06;97267.50;5074033;28;20256;-74
2023/09/28 05:15:45;;;;;;;22.67;6.70;;;;;;;20.12;57.34;97281.31;5049999;28;20225;-82
2023/09/28 05:18:12;;;;;;;19.20;5.53;;;;;;;20.03;56.73;97253.13;5054734;28;20243;-85
2023/09/28 05:21:17;;;;;;;17.93;5.97;;;;;;;19.95;57.63;97278.34;5057930;28;20198;-84
2023/09/28 05:23:44;;;;;;;16.60;6.13;;;;;;;20.34;57.08;97280.44;5051361;28;20210;-84
2023/09/28 05:26:11;;;;;;;16.47;6.03;;;;;;;20.34;56.75;97242.81;5052046;28;20208;-83
2023/09/28 05:31:24;;;;;;;16.27;6.97;;;;;;;20.93;55.80;97265.88;5050020;28;20265;-75
2023/09/28 05:34:10;;;;;;;14.07;5.60;;;;;;;20.78;56.93;97272.41;5048958;28;20208;-87
2023/09/28 05:36:37;;;;;;;18.17;6.00;;;;;;;20.99;56.66;97281.16;5051684;28;20206;-76
2023/09/28 05:39:23;;;;;;;18.60;6.50;;;;;;;21.15;56.39;97277.25;5051152;28;20270;-74
2023/09/28 05:42:08;;;;;;;21.27;6.53;;;;;;;21.29;55.95;97266.41;5048359;28;20243;-75
2023/09/28 05:44:35;;;;;;;22.87;8.40;;;;;;;21.48;54.87;97279.66;5047934;28;20205;-83
2023/09/28 05:50:26;;;;;;;13.07;5.63;;;;;;;21.43;53.96;97289.78;5052903;28;20204;-87
2023/09/28 05:53:10;;;;;;;14.43;6.40;;;;;;;21.54;53.69;97287.88;5051681;28;20183;-85
2023/09/28 05:55:37;;;;;;;18.87;5.53;;;;;;;21.82;53.24;97281.09;5051477;28;20250;-84
2023/09/28 05:58:04;;;;;;;15.30;5.40;;;;;;;21.80;53.75;97272.47;5051215;28;20199;-83
2023/09/28 06:00:31;;;;;;;14.97;5.63;;;;;;;21.92;53.57;97279.34;5051366;28;20200;-86
2023/09/28 06:03:17;;;;;;;11.47;5.63;;;;;;;21.98;53.46;97280.59;5054077;28;20219;-81
2023/09/28 06:06:03;;;;;;;14.93;4.67;;;;;;;22.08;52.90;97277.00;5050928;28;20195;-78
2023/09/28 06:08:52;;;;;;;8.33;3.60;;;;;;;22.10;53.50;97275.06;5053899;28;20224;-80
2023/09/28 06:11:57;;;;;;;8.03;4.73;;;;;;;22.42;52.97;97286.22;5052590;28;20644;-82
2023/09/28 06:14:24;;;;;;;26.43;7.90;;;;;;;22.35;53.07;97281.66;5052751;28;20228;-76
2023/09/28 06:19:56;;;;;;;12.37;5.33;;;;;;;22.44;53.14;97289.56;5050277;28;20213;-74
2023/09/28 06:22:25;;;;;;;15.43;5.30;;;;;;;22.26;54.28;97291.22;5049469;28;20190;-84
2023/09/28 06:24:52;;;;;;;14.20;5.17;;;;;;;22.18;54.12;97288.41;5047651;28;20200;-82
2023/09/28 06:27:19;;;;;;;16.80;5.27;;;;;;;22.30;54.13;97282.06;5050065;28;20201;-89
2023/09/28 06:30:05;;;;;;;20.47;5.20;;;;;;;22.28;53.74;97281.34;5050148;28;20247;-85
2023/09/28 06:32:32;;;;;;;13.87;5.37;;;;;;;22.05;54.78;97287.81;5051255;28;20204;-77
2023/09/28 06:35:18;;;;;;;21.37;6.20;;;;;;;22.31;54.48;97288.16;5050339;28;20224;-77
2023/09/28 06:38:23;;;;;;;9.30;5.07;;;;;;;22.44;53.38;97299.31;5049868;28;20196;-80
2023/09/28 06:40:50;;;;;;;17.33;5.77;;;;;;;22.46;53.65;97294.72;5051421;28;20231;-81
2023/09/28 06:43:17;;;;;;;18.43;5.77;;;;;;;22.46;53.83;97297.38;5032034;28;20684;-78
2023/09/28 06:45:45;;;;;;;23.57;9.10;;;;;;;22.58;54.07;97293.66;5050334;28;20294;-81
2023/09/28 06:48:13;;;;;;;15.47;5.17;;;;;;;22.20;54.55;97275.94;5049015;28;20201;-76
2023/09/28 06:50:47;;;;;;;12.43;5.43;;;;;;;22.32;54.29;97289.81;5046662;28;20634;-78
2023/09/28 06:53:16;;;;;;;14.20;6.17;;;;;;;22.38;53.88;97252.34;5047745;28;20202;-82
2023/09/28 06:55:45;;;;;;;17.07;5.73;;;;;;;22.73;53.43;97283.53;5047360;28;20679;-79
2023/09/28 07:01:04;;;;;;;15.47;6.33;;;;;;;23.17;52.38;97304.06;5047408;28;20203;-79
2023/09/28 07:03:31;;;;;;;14.80;7.53;;;;;;;23.13;52.90;97294.75;5047523;28;20296;-76
2023/09/28 07:05:58;;;;;;;17.43;6.00;;;;;;;22.78;52.79;97262.81;5046768;28;20604;-78
2023/09/28 07:08:25;;;;;;;10.53;4.57;;;;;;;22.90;52.55;97290.72;5047657;28;20198;-82
2023/09/28 07:10:52;;;;;;;23.17;9.00;;;;;;;22.84;52.66;97286.84;5046356;28;20270;-78
2023/09/28 07:13:19;;;;;;;10.27;4.87;;;;;;;22.72;54.08;97293.25;5046752;28;20217;-78
2023/09/28 07:15:47;;;;;;;10.10;3.30;;;;;;;22.53;54.52;97303.75;5047732;28;20321;-82
2023/09/28 07:18:14;;;;;;;16.83;5.53;;;;;;;22.19;54.78;97242.63;5047234;28;20319;-85
2023/09/28 07:21:00;;;;;;;10.13;4.10;;;;;;;22.24;55.34;97300.22;5046955;28;20195;-83
2023/09/28 07:23:27;;;;;;;10.03;3.93;;;;;;;22.38;54.69;97303.31;5046783;28;20207;-80
2023/09/28 07:25:55;;;;;;;8.33;3.70;;;;;;;22.27;55.40;97314.00;5044995;28;20581;-74
2023/09/28 07:28:22;;;;;;;6.70;3.40;;;;;;;22.20;55.34;97307.59;5047482;28;20685;-74
2023/09/28 07:30:49;;;;;;;8.83;3.70;;;;;;;22.01;56.15;97320.72;5046023;28;20204;-80
2023/09/28 07:33:17;;;;;;;7.23;2.90;;;;;;;21.81;56.16;97326.84;5046739;28;20201;-74
2023/09/28 07:36:05;;;;;;;7.00;3.53;;;;;;;21.95;56.50;97325.72;5045562;28;20343;-74
2023/09/28 07:38:33;;;;;;;7.70;3.63;;;;;;;21.75;56.63;97332.66;5046205;28;20204;-74
2023/09/28 07:44:24;;;;;;;6.77;3.53;;;;;;;21.74;56.64;97326.53;5046150;28;20706;-74
2023/09/28 07:46:52;;;;;;;7.30;3.73;;;;;;;21.87;56.26;97331.63;5044823;28;20648;-76
2023/09/28 07:49:19;;;;;;;9.07;3.77;;;;;;;21.83;55.83;97331.06;5046638;28;20782;-74
2023/09/28 07:51:46;;;;;;;7.27;3.63;;;;;;;21.89;56.18;97334.97;5046225;28;20214;-77
2023/09/28 07:54:31;;;;;;;8.90;3.80;;;;;;;21.81;56.78;97319.81;5047926;28;20654;-75
2023/09/28 07:56:58;;;;;;;5.57;3.37;;;;;;;21.91;57.03;97319.84;5046132;28;20199;-74
2023/09/28 08:00:02;;;;;;;5.63;2.57;;;;;;;21.88;56.69;97335.94;5045619;28;20191;-81
2023/09/28 08:02:48;;;;;;;10.17;3.47;;;;;;;21.88;56.65;97341.22;5047478;28;20203;-74
2023/09/28 08:05:15;;;;;;;8.43;3.70;;;;;;;21.98;56.64;97331.53;5046629;28;20616;-74
2023/09/28 08:08:02;;;;;;;4.37;2.77;;;;;;;21.97;56.07;97327.22;5047221;28;20607;-73
2023/09/28 08:10:42;;;;;;;8.37;3.30;;;;;;;22.05;56.05;97329.22;5046870;28;20745;-75
2023/09/28 08:13:10;;;;;;;5.53;2.87;;;;;;;22.08;55.38;97324.50;5046269;28;20291;-76
2023/09/28 08:15:59;;;;;;;6.43;3.57;;;;;;;22.47;55.21;97313.06;5047057;28;20381;-76
2023/09/28 08:18:27;;;;;;;3.53;3.13;;;;;;;22.53;54.21;97311.69;5045701;28;20236;-76
2023/09/28 08:21:12;;;;;;;9.50;3.93;;;;;;;22.59;54.55;97319.06;5045224;28;20282;-75
2023/09/28 08:24:17;;;;;;;9.17;4.53;;;;;;;22.71;53.76;97317.16;5046960;28;20730;-71
2023/09/28 08:27:06;;;;;;;6.00;3.70;;;;;;;22.63;54.29;97316.03;5044139;28;20244;-76
2023/09/28 08:29:34;;;;;;;10.57;3.93;;;;;;;22.91;53.20;97310.91;5046438;28;20205;-74
2023/09/28 08:32:01;;;;;;;9.50;4.07;;;;;;;23.03;53.15;97315.06;5046422;28;20196;-72
2023/09/28 08:34:49;;;;;;;8.57;4.10;;;;;;;23.09;52.85;97314.50;5045736;28;20742;-77
2023/09/28 08:37:16;;;;;;;9.90;3.60;;;;;;;22.99;52.70;97318.97;5046313;28;20278;-77
2023/09/28 08:39:44;;;;;;;9.13;4.50;;;;;;;23.12;53.18;97312.41;5045292;28;20671;-73
2023/09/28 08:45:03;;;;;;;11.20;3.53;;;;;;;23.49;51.41;97304.59;5045703;28;20206;-74
2023/09/28 08:47:34;;;;;;;6.67;3.83;;;;;;;23.62;51.31;97306.94;5045537;28;20210;-73
2023/09/28 08:50:03;;;;;;;6.03;3.80;;;;;;;23.39;51.41;97309.06;5046099;28;20796;-73
2023/09/28 08:52:30;;;;;;;9.93;4.50;;;;;;;23.53;50.41;97290.13;5043944;28;20300;-74
2023/09/28 08:55:17;;;;;;;7.27;3.20;;;;;;;23.65;50.91;97298.69;5046092;28;20202;-72
2023/09/28 08:57:44;;;;;;;7.77;3.73;;;;;;;23.82;50.00;97280.25;5046210;28;20191;-77
2023/09/28 09:00:13;;;;;;;5.57;3.30;;;;;;;24.04;48.75;97300.25;5045923;28;20298;-74
2023/09/28 09:02:43;;;;;;;10.20;2.90;;;;;;;23.75;48.32;97271.25;5046074;28;20198;-74
2023/09/28 09:05:13;;;;;;;9.10;3.97;;;;;;;23.95;48.41;97296.63;5044218;28;20206;-73
2023/09/28 09:07:42;;;;;;;7.47;3.10;;;;;;;23.90;49.07;97301.53;5048275;28;20279;-75
2023/09/28 09:10:28;;;;;;;6.33;3.50;;;;;;;24.13;47.61;97294.09;5048650;28;20197;-74
2023/09/28 09:13:33;;;;;;;7.13;3.80;;;;;;;24.42;47.32;97299.19;5047301;28;20266;-72
2023/09/28 09:16:00;;;;;;;8.83;4.13;;;;;;;24.73;46.92;97295.22;5046207;28;20232;-78
2023/09/28 09:18:48;;;;;;;8.23;3.80;;;;;;;24.89;47.01;97290.91;5045317;28;20711;-75
2023/09/28 09:21:15;;;;;;;9.07;3.93;;;;;;;24.89;46.79;97271.56;5046150;28;20261;-80
2023/09/28 09:26:47;;;;;;;6.00;3.00;;;;;;;25.41;46.12;97283.88;5047982;28;20291;-74
2023/09/28 09:29:15;;;;;;;7.73;3.13;;;;;;;25.20;44.00;97275.44;5051018;28;20213;-73
2023/09/28 09:32:02;;;;;;;10.63;4.10;;;;;;;25.15;42.68;97222.03;5046982;28;20193;-73
2023/09/28 09:37:16;;;;;;;5.37;2.90;;;;;;;25.12;42.97;97274.56;5050117;28;20221;-73
2023/09/28 09:39:43;;;;;;;6.17;3.30;;;;;;;24.96;43.96;97276.06;5048208;28;20729;-74
2023/09/28 09:42:11;;;;;;;6.23;2.70;;;;;;;25.04;43.61;97270.84;5049331;28;20198;-73
2023/09/28 09:45:18;;;;;;;5.27;2.90;;;;;;;25.12;44.26;97270.09;5050554;28;20193;-72
2023/09/28 09:48:08;;;;;;;7.13;2.80;;;;;;;25.00;44.51;97274.78;5049257;28;20688;-72
2023/09/28 09:50:38;;;;;;;5.73;2.83;;;;;;;24.77;44.51;97264.81;5048190;28;20235;-78
2023/09/28 09:53:26;;;;;;;7.27;3.40;;;;;;;24.72;42.66;97275.84;5049654;28;20205;-74
2023/09/28 09:56:13;;;;;;;8.33;3.07;;;;;;;25.00;42.98;97264.19;5050481;28;20233;-80
2023/09/28 09:58:48;;;;;;;6.13;3.47;;;;;;;25.08;43.08;97263.41;5048707;28;20255;-75
2023/09/28 10:01:17;;;;;;;7.30;3.10;;;;;;;24.79;43.13;97257.56;5048909;28;20204;-75
2023/09/28 10:04:05;;;;;;;9.60;3.37;;;;;;;24.82;42.70;97260.72;5051353;28;20200;-73
2023/09/28 10:06:52;;;;;;;5.63;3.37;;;;;;;25.06;43.02;97268.03;5049902;28;20274;-75
2023/09/28 10:09:57;;;;;;;7.57;3.07;;;;;;;24.73;43.25;97261.63;5049835;28;20201;-72
2023/09/28 10:12:26;;;;;;;6.73;3.00;;;;;;;24.76;42.61;97255.19;5049659;28;20256;-74
2023/09/28 10:18:15;;;;;;;8.07;3.37;;;;;;;24.89;42.87;97258.31;5048923;28;20753;-74
2023/09/28 10:20:42;;;;;;;7.53;4.03;;;;;;;24.99;42.50;97261.69;5049879;28;20271;-75
2023/09/28 10:26:35;;;;;;;6.57;3.10;;;;;;;24.88;43.25;97267.22;5050463;28;20204;-78
2023/09/28 10:29:40;;;;;;;9.10;3.43;;;;;;;24.72;43.97;97248.50;5049203;28;20200;-74
2023/09/28 10:35:38;;;;;;;5.90;3.30;;;;;;;24.62;44.19;97253.06;5048516;28;20584;-73
2023/09/28 10:38:18;;;;;;;8.27;4.60;;;;;;;24.61;44.09;97248.72;5048616;28;20804;-81
2023/09/28 10:41:06;;;;;;;6.70;2.80;;;;;;;24.38;44.47;97242.25;5048772;28;20205;-72
2023/09/28 10:43:34;;;;;;;10.63;3.30;;;;;;;24.56;44.69;97259.81;5048365;28;20208;-73
2023/09/28 10:46:03;;;;;;;6.70;3.87;;;;;;;24.47;44.50;97238.66;5047802;28;20894;-78
2023/09/28 10:48:37;;;;;;;8.90;3.03;;;;;;;24.69;44.10;97246.19;5048142;28;20284;-83
2023/09/28 10:51:09;;;;;;;7.80;3.20;;;;;;;24.89;44.18;97235.25;5048087;28;20209;-79
2023/09/28 10:53:37;;;;;;;8.23;2.80;;;;;;;24.57;44.94;97231.47;5047374;28;20228;-76
2023/09/28 10:56:06;;;;;;;5.07;2.97;;;;;;;24.45;45.07;97246.78;5048371;28;20240;-74
2023/09/28 10:58:34;;;;;;;7.57;3.13;;;;;;;24.04;45.69;97200.53;5047718;28;20203;-74
2023/09/28 11:01:21;;;;;;;8.03;3.20;;;;;;;24.44;45.93;97246.94;5047979;28;20307;-74
2023/09/28 11:04:05;;;;;;;5.43;3.10;;;;;;;24.58;44.92;97251.69;5047027;28;20185;-76
2023/09/28 11:06:50;;;;;;;5.57;2.77;;;;;;;24.59;45.37;97238.28;5049158;28;20629;-78
2023/09/28 11:09:19;;;;;;;9.03;3.13;;;;;;;24.48;44.76;97245.66;5048780;28;20195;-81
2023/09/28 11:11:49;;;;;;;6.73;3.10;;;;;;;24.68;44.88;97249.78;5046114;28;20207;-76
2023/09/28 11:14:36;;;;;;;5.33;3.20;;;;;;;24.78;44.07;97243.47;5047802;28;20200;-76
2023/09/28 11:17:03;;;;;;;7.07;2.80;;;;;;;24.66;43.89;97249.97;5049583;28;20233;-80
2023/09/28 11:19:49;;;;;;;5.33;2.87;;;;;;;24.59;44.15;97250.69;5049293;28;20865;-83
2023/09/28 11:22:18;;;;;;;8.13;2.83;;;;;;;24.70;44.08;97245.19;5048549;28;20448;-84
2023/09/28 11:25:03;;;;;;;6.23;2.90;;;;;;;24.56;45.22;97243.06;5047762;28;20240;-81
2023/09/28 11:27:31;;;;;;;4.80;2.80;;;;;;;24.47;46.49;97243.97;5051315;28;20232;-88
2023/09/28 11:29:59;;;;;;;8.00;3.00;;;;;;;24.59;46.76;97237.44;5047376;28;21034;-78
2023/09/28 11:32:46;;;;;;;7.17;3.13;;;;;;;24.61;46.40;97241.63;5047920;28;20679;-77
2023/09/28 11:35:13;;;;;;;6.53;3.10;;;;;;;24.60;46.39;97239.13;5047823;28;20709;-73
2023/09/28 11:37:40;;;;;;;5.93;2.80;;;;;;;24.60;46.74;97224.06;5047366;28;20247;-74
2023/09/28 11:40:28;;;;;;;5.67;3.27;;;;;;;24.51;47.36;97218.84;5047453;28;20269;-76
2023/09/28 11:42:59;;;;;;;6.00;3.10;;;;;;;24.75;47.37;97240.31;5047920;28;20216;-73
2023/09/28 11:49:27;;;;;;;8.37;3.13;;;;;;;24.61;45.81;97246.91;5049067;28;20203;-78
2023/09/28 11:52:30;;;;;;;4.37;2.83;;;;;;;24.65;45.73;97248.28;5046972;28;20203;-84
2023/09/28 11:55:00;;;;;;;13.30;5.80;;;;;;;24.64;46.90;97251.94;5050280;28;20710;-82
2023/09/28 11:57:45;;;;;;;6.10;2.97;;;;;;;24.24;47.84;97259.44;5052023;28;20255;-81
2023/09/28 12:00:31;;;;;;;3.87;2.70;;;;;;;24.08;47.61;97251.34;5050189;28;20262;-84
2023/09/28 12:02:59;;;;;;;5.37;3.50;;;;;;;24.19;47.41;97251.94;5046326;28;20196;-83
2023/09/28 12:05:26;;;;;;;4.47;2.83;;;;;;;23.75;47.47;97210.41;5046699;28;20197;-84
2023/09/28 12:11:17;;;;;;;6.77;2.93;;;;;;;24.09;47.99;97264.41;5056874;28;20205;-74
2023/09/28 12:14:02;;;;;;;9.50;2.70;;;;;;;23.89;47.70;97251.41;5058961;28;20260;-81
2023/09/28 12:16:30;;;;;;;6.47;3.60;;;;;;;24.19;48.45;97254.59;5056940;28;20618;-83
2023/09/28 12:19:16;;;;;;;6.67;3.10;;;;;;;24.04;47.74;97237.56;5052351;28;20229;-82
2023/09/28 12:21:45;;;;;;;7.57;2.57;;;;;;;23.72;48.60;97231.84;5049818;28;20204;-87
2023/09/28 12:24:31;;;;;;;8.33;3.20;;;;;;;23.87;48.42;97245.41;5047376;28;20291;-82
2023/09/28 12:27:01;;;;;;;6.27;3.07;;;;;;;23.78;48.54;97244.47;5049674;28;20214;-82
2023/09/28 12:29:28;;;;;;;10.70;3.40;;;;;;;24.08;48.07;97249.53;5048496;28;20565;-81
2023/09/28 12:32:12;;;;;;;6.97;3.13;;;;;;;24.07;47.33;97239.09;5048644;28;20752;-80
2023/09/28 12:35:17;;;;;;;4.20;3.20;;;;;;;23.99;47.80;97237.13;5047967;28;20390;-83
2023/09/28 12:37:45;;;;;;;10.13;3.60;;;;;;;23.99;48.53;97228.34;5045707;28;20232;-87
2023/09/28 12:40:13;;;;;;;8.83;3.30;;;;;;;23.91;48.35;97221.16;5048516;28;20199;-76
2023/09/28 12:43:00;;;;;;;9.80;3.30;;;;;;;24.13;48.05;97249.91;5046167;28;20202;-84
2023/09/28 12:45:45;;;;;;;10.37;3.40;;;;;;;24.24;47.58;97241.75;5047831;28;20182;-78
2023/09/28 12:48:17;;;;;;;7.70;3.10;;;;;;;24.23;47.44;97258.59;5046261;28;20633;-84
2023/09/28 12:51:21;;;;;;;8.53;2.80;;;;;;;24.02;47.69;97220.97;5044956;28;20189;-78
2023/09/28 12:53:48;;;;;;;5.50;2.60;;;;;;;23.96;47.67;97237.44;5046443;28;20206;-83
2023/09/28 12:56:34;;;;;;;4.47;2.37;;;;;;;24.03;47.30;97238.53;5046274;28;20297;-80
2023/09/28 12:59:38;;;;;;;9.37;3.10;;;;;;;23.96;47.39;97242.75;5045471;28;20746;-80
2023/09/28 13:02:25;;;;;;;7.73;3.23;;;;;;;24.09;47.06;97250.38;5046217;28;20979;-80
2023/09/28 13:04:53;;;;;;;8.73;3.23;;;;;;;23.96;47.62;97233.97;5045149;28;20297;-79
2023/09/28 13:07:20;;;;;;;11.03;3.23;;;;;;;24.19;46.85;97241.34;5044931;28;20282;-81
2023/09/28 13:09:48;;;;;;;7.40;2.83;;;;;;;24.17;47.59;97242.50;5050722;28;20598;-81
2023/09/28 13:12:15;;;;;;;7.73;2.90;;;;;;;24.11;47.41;97238.63;5049062;28;20574;-85
2023/09/28 13:14:43;;;;;;;6.87;2.77;;;;;;;24.05;46.82;97249.81;5051184;28;20203;-84
2023/09/28 13:17:13;;;;;;;11.87;3.63;;;;;;;24.16;46.01;97223.16;5054921;28;20242;-80
2023/09/28 13:19:42;;;;;;;5.53;3.30;;;;;;;24.43;45.53;97237.31;5050658;28;20200;-82
2023/09/28 13:22:09;;;;;;;7.07;3.27;;;;;;;24.77;45.53;97239.13;5052513;28;20200;-84
2023/09/28 13:24:37;;;;;;;9.23;3.30;;;;;;;24.75;45.02;97243.75;5049520;28;20219;-76
2023/09/28 13:27:05;;;;;;;10.33;3.13;;;;;;;24.65;46.12;97237.69;5049662;28;20276;-73
2023/09/28 13:29:33;;;;;;;10.70;3.20;;;;;;;24.64;46.26;97235.19;5049349;28;20208;-82
2023/09/28 13:32:01;;;;;;;6.27;2.70;;;;;;;23.97;44.79;97183.53;5049343;28;20197;-77
2023/09/28 13:34:28;;;;;;;11.87;2.83;;;;;;;24.38;45.29;97234.28;5049960;28;20300;-74
2023/09/28 13:36:55;;;;;;;7.20;2.67;;;;;;;24.39;44.92;97246.53;5049723;28;20330;-85
2023/09/28 13:39:30;;;;;;;9.83;2.90;;;;;;;24.24;44.92;97241.75;5049695;28;20211;-81
2023/09/28 13:42:06;;;;;;;7.53;3.27;;;;;;;24.39;44.81;97246.53;5047121;28;20289;-75
2023/09/28 13:44:33;;;;;;;8.33;3.33;;;;;;;24.61;43.73;97241.63;5048461;28;20231;-81